createdAt,value
2019-01-14T00:02:01.871Z,5.50
2019-01-14T00:04:34.719Z,5.50
2019-01-14T00:07:07.427Z,5.50
2019-01-14T00:09:39.630Z,5.50
2019-01-14T00:12:11.931Z,5.50
2019-01-14T00:14:44.280Z,5.50
2019-01-14T00:17:16.784Z,5.50
2019-01-14T00:19:49.076Z,5.50
2019-01-14T00:22:21.283Z,5.50
2019-01-14T00:24:53.488Z,5.50
2019-01-14T00:27:25.904Z,5.50
2019-01-14T00:29:58.118Z,5.50
2019-01-14T00:32:30.417Z,5.50
2019-01-14T00:35:02.936Z,5.50
2019-01-14T00:37:35.143Z,5.40
2019-01-14T00:40:10.695Z,5.40
2019-01-14T00:42:43.382Z,5.40
2019-01-14T00:45:15.937Z,5.50
2019-01-14T00:47:48.344Z,5.50
2019-01-14T00:50:20.759Z,5.50
2019-01-14T00:52:53.164Z,5.50
2019-01-14T00:55:25.535Z,5.50
2019-01-14T00:57:57.830Z,5.50
2019-01-14T01:00:30.343Z,5.50
2019-01-14T01:03:02.739Z,5.50
2019-01-14T01:05:35.133Z,5.50
2019-01-14T01:08:07.570Z,5.50
2019-01-14T01:10:39.992Z,5.50
2019-01-14T01:13:12.400Z,5.50
2019-01-14T01:15:44.714Z,5.50
2019-01-14T01:18:17.017Z,5.50
2019-01-14T01:20:49.797Z,5.50
2019-01-14T01:23:22.019Z,5.60
2019-01-14T01:25:54.236Z,5.60
2019-01-14T01:28:26.540Z,5.60
2019-01-14T01:30:58.753Z,5.60
2019-01-14T01:33:31.173Z,5.60
2019-01-14T01:36:03.392Z,5.50
2019-01-14T01:38:35.895Z,5.50
2019-01-14T01:41:08.305Z,5.50
2019-01-14T01:43:40.618Z,5.60
2019-01-14T01:46:13.036Z,5.50
2019-01-14T01:48:45.335Z,5.60
2019-01-14T01:51:17.746Z,5.60
2019-01-14T01:53:49.971Z,5.50
2019-01-14T01:56:22.318Z,5.60
2019-01-14T01:58:54.730Z,5.50
2019-01-14T02:01:27.137Z,5.50
2019-01-14T02:03:59.994Z,5.50
2019-01-14T02:06:38.991Z,5.50
2019-01-14T02:09:08.375Z,5.50
2019-01-14T02:11:40.887Z,5.50
2019-01-14T02:14:13.680Z,5.50
2019-01-14T02:16:46.273Z,5.50
2019-01-14T02:19:18.585Z,5.50
2019-01-14T02:21:50.900Z,5.50
2019-01-14T02:24:23.107Z,5.50
2019-01-14T02:26:55.324Z,5.50
2019-01-14T02:29:27.498Z,5.50
2019-01-14T02:31:59.713Z,5.50
2019-01-14T02:34:31.883Z,5.50
2019-01-14T02:37:04.302Z,5.50
2019-01-14T02:39:36.475Z,5.50
2019-01-14T02:42:08.892Z,5.50
2019-01-14T02:44:41.049Z,5.50
2019-01-14T02:47:13.356Z,5.50
2019-01-14T02:49:45.572Z,5.40
2019-01-14T02:52:17.877Z,5.50
2019-01-14T02:54:50.143Z,5.50
2019-01-14T02:57:22.462Z,5.50
2019-01-14T02:59:56.073Z,5.50
2019-01-14T03:02:28.519Z,5.50
2019-01-14T03:05:00.868Z,5.40
2019-01-14T03:07:33.169Z,5.50
2019-01-14T03:10:07.120Z,5.50
2019-01-14T03:12:39.425Z,5.50
2019-01-14T03:15:12.337Z,5.40
2019-01-14T03:17:44.745Z,5.50
2019-01-14T03:20:17.508Z,5.50
2019-01-14T03:22:50.030Z,5.50
2019-01-14T03:25:22.297Z,5.50
2019-01-14T03:27:54.502Z,5.50
2019-01-14T03:30:26.880Z,5.50
2019-01-14T03:32:59.249Z,5.50
2019-01-14T03:35:31.516Z,5.50
2019-01-14T03:38:04.023Z,5.50
2019-01-14T03:40:36.190Z,5.40
2019-01-14T03:43:08.691Z,5.40
2019-01-14T03:45:41.218Z,5.40
2019-01-14T03:48:13.745Z,5.40
2019-01-14T03:50:46.255Z,5.40
2019-01-14T03:53:18.713Z,5.40
2019-01-14T03:55:51.070Z,5.30
2019-01-14T03:58:23.582Z,5.30
2019-01-14T04:00:55.847Z,5.30
2019-01-14T04:03:28.051Z,5.30
2019-01-14T04:06:00.414Z,5.20
2019-01-14T04:08:32.828Z,5.20
2019-01-14T04:11:05.195Z,5.10
2019-01-14T04:13:37.514Z,5.10
2019-01-14T04:16:09.688Z,5.10
2019-01-14T04:18:41.999Z,5.10
2019-01-14T04:21:14.363Z,5.10
2019-01-14T04:23:46.883Z,5.10
2019-01-14T04:26:19.351Z,5.10
2019-01-14T04:28:51.666Z,5.10
2019-01-14T04:31:23.835Z,5.10
2019-01-14T04:33:56.857Z,5.20
2019-01-14T04:36:29.224Z,5.20
2019-01-14T04:39:02.708Z,5.10
2019-01-14T04:41:34.971Z,5.10
2019-01-14T04:44:07.387Z,5.10
2019-01-14T04:46:40.484Z,5.10
2019-01-14T04:49:12.900Z,5.10
2019-01-14T04:51:45.068Z,5.00
2019-01-14T04:54:17.420Z,5.10
2019-01-14T04:56:49.580Z,5.00
2019-01-14T04:59:21.869Z,5.00
2019-01-14T05:01:54.139Z,5.00
2019-01-14T05:04:26.477Z,5.00
2019-01-14T05:06:58.707Z,5.00
2019-01-14T05:09:30.908Z,5.10
2019-01-14T05:12:03.156Z,5.10
2019-01-14T05:14:35.375Z,5.10
2019-01-14T05:17:07.647Z,5.10
2019-01-14T05:19:39.960Z,5.10
2019-01-14T05:22:12.426Z,5.10
2019-01-14T05:24:44.817Z,5.10
2019-01-14T05:27:17.185Z,5.10
2019-01-14T05:29:49.400Z,5.00
2019-01-14T05:32:21.572Z,5.00
2019-01-14T05:34:53.987Z,5.00
2019-01-14T05:37:26.272Z,4.90
2019-01-14T05:39:58.582Z,4.90
2019-01-14T05:42:31.041Z,4.90
2019-01-14T05:45:03.260Z,4.90
2019-01-14T05:47:35.628Z,4.80
2019-01-14T05:50:09.535Z,4.80
2019-01-14T05:52:41.938Z,4.80
2019-01-14T05:58:44.006Z,4.70
2019-01-14T06:01:16.389Z,4.70
2019-01-14T06:03:48.561Z,4.60
2019-01-14T06:06:20.951Z,4.50
2019-01-14T06:08:53.514Z,4.50
2019-01-14T06:11:25.715Z,4.50
2019-01-14T06:13:57.899Z,4.50
2019-01-14T06:16:30.214Z,4.40
2019-01-14T06:19:02.377Z,4.40
2019-01-14T06:21:34.698Z,4.40
2019-01-14T06:24:07.265Z,4.40
2019-01-14T06:26:39.683Z,4.30
2019-01-14T06:29:11.843Z,4.20
2019-01-14T06:31:44.453Z,4.10
2019-01-14T06:34:16.617Z,4.10
2019-01-14T06:36:48.834Z,4.00
2019-01-14T06:39:21.103Z,4.00
2019-01-14T06:41:53.310Z,3.90
2019-01-14T06:44:25.478Z,3.90
2019-01-14T06:46:57.887Z,3.90
2019-01-14T06:49:30.145Z,3.80
2019-01-14T06:52:02.463Z,3.80
2019-01-14T06:54:34.630Z,3.80
2019-01-14T06:57:07.185Z,3.80
2019-01-14T06:59:41.014Z,3.80
2019-01-14T07:02:13.631Z,3.80
2019-01-14T07:04:45.892Z,3.80
2019-01-14T07:07:18.204Z,3.80
2019-01-14T07:09:50.565Z,3.90
2019-01-14T07:12:22.774Z,3.90
2019-01-14T07:14:54.934Z,3.90
2019-01-14T07:17:27.343Z,3.90
2019-01-14T07:19:59.507Z,3.90
2019-01-14T07:22:31.822Z,3.90
2019-01-14T07:25:04.261Z,3.90
2019-01-14T07:27:36.577Z,3.90
2019-01-14T07:30:12.953Z,3.90
2019-01-14T07:32:45.369Z,3.90
2019-01-14T07:35:17.834Z,3.90
2019-01-14T07:37:50.666Z,3.90
2019-01-14T07:40:23.163Z,3.90
2019-01-14T07:42:55.572Z,3.90
2019-01-14T07:45:28.025Z,3.90
2019-01-14T07:48:00.254Z,4.00
2019-01-14T07:50:32.414Z,4.00
2019-01-14T07:53:04.941Z,4.10
2019-01-14T07:55:37.398Z,4.10
2019-01-14T07:58:09.804Z,4.10
2019-01-14T08:00:42.060Z,4.10
2019-01-14T08:03:14.566Z,4.10
2019-01-14T08:05:46.731Z,4.10
2019-01-14T08:08:18.939Z,4.10
2019-01-14T08:10:51.309Z,4.20
2019-01-14T08:13:23.525Z,4.20
2019-01-14T08:15:55.787Z,4.20
2019-01-14T08:18:28.092Z,4.30
2019-01-14T08:21:00.559Z,4.30
2019-01-14T08:23:32.769Z,4.40
2019-01-14T08:26:05.149Z,4.40
2019-01-14T08:28:37.550Z,4.40
2019-01-14T08:31:09.825Z,4.50
2019-01-14T08:33:42.031Z,4.60
2019-01-14T08:36:14.396Z,4.70
2019-01-14T08:38:46.849Z,4.70
2019-01-14T08:41:20.024Z,4.70
2019-01-14T08:43:56.585Z,4.70
2019-01-14T08:46:29.824Z,4.70
2019-01-14T08:49:02.035Z,4.70
2019-01-14T08:51:34.538Z,4.70
2019-01-14T08:54:07.198Z,4.70
2019-01-14T08:56:39.620Z,4.70
2019-01-14T08:59:11.836Z,4.80
2019-01-14T09:01:44.081Z,4.80
2019-01-14T09:04:22.235Z,4.80
2019-01-14T09:06:50.377Z,4.90
2019-01-14T09:09:22.796Z,5.00
2019-01-14T09:11:55.054Z,5.10
2019-01-14T09:14:27.354Z,5.20
2019-01-14T09:16:59.734Z,5.30
2019-01-14T09:19:32.152Z,5.30
2019-01-14T09:22:04.783Z,5.30
2019-01-14T09:24:36.990Z,5.30
2019-01-14T09:27:09.160Z,5.30
2019-01-14T09:29:41.507Z,5.30
2019-01-14T09:32:14.237Z,5.20
2019-01-14T09:34:47.103Z,5.20
2019-01-14T09:37:19.629Z,5.10
2019-01-14T09:39:51.956Z,4.90
2019-01-14T09:42:27.964Z,4.80
2019-01-14T09:44:58.017Z,4.60
2019-01-14T09:47:30.323Z,4.40
2019-01-14T09:50:02.711Z,4.20
2019-01-14T09:52:34.985Z,4.00
2019-01-14T09:55:10.738Z,3.90
2019-01-14T09:57:43.064Z,3.90
2019-01-14T10:00:15.677Z,3.70
2019-01-14T10:02:48.336Z,3.60
2019-01-14T10:05:21.689Z,3.50
2019-01-14T10:07:54.052Z,3.40
2019-01-14T10:10:26.362Z,3.30
2019-01-14T10:12:58.711Z,3.40
2019-01-14T10:15:30.911Z,3.30
2019-01-14T10:18:05.098Z,3.20
2019-01-14T10:20:37.561Z,3.30
2019-01-14T10:23:10.029Z,3.40
2019-01-14T10:25:43.134Z,3.50
2019-01-14T10:28:15.400Z,3.50
2019-01-14T10:30:47.913Z,3.50
2019-01-14T10:33:20.283Z,3.50
2019-01-14T10:35:52.871Z,3.50
2019-01-14T10:38:25.131Z,3.50
2019-01-14T10:40:57.341Z,3.60
2019-01-14T10:43:29.615Z,3.60
2019-01-14T10:46:01.923Z,3.70
2019-01-14T10:48:34.189Z,3.80
2019-01-14T10:51:06.694Z,3.80
2019-01-14T10:53:38.968Z,3.80
2019-01-14T10:56:11.278Z,3.80
2019-01-14T10:58:43.584Z,3.80
2019-01-14T11:01:15.891Z,3.90
2019-01-14T11:03:48.158Z,3.90
2019-01-14T11:06:20.715Z,4.00
2019-01-14T11:08:57.625Z,4.10
2019-01-14T11:11:27.246Z,4.20
2019-01-14T11:13:59.773Z,4.20
2019-01-14T11:16:32.261Z,4.20
2019-01-14T11:19:04.528Z,4.20
2019-01-14T11:21:36.942Z,4.30
2019-01-14T11:24:09.318Z,4.30
2019-01-14T11:26:41.728Z,4.30
2019-01-14T11:29:14.005Z,4.30
2019-01-14T11:31:46.415Z,4.40
2019-01-14T11:34:18.582Z,4.50
2019-01-14T11:36:50.804Z,4.50
2019-01-14T11:39:23.719Z,4.50
2019-01-14T11:41:56.346Z,4.60
2019-01-14T11:44:28.519Z,4.50
2019-01-14T11:47:00.834Z,4.60
2019-01-14T11:49:32.999Z,4.60
2019-01-14T11:52:05.516Z,4.60
2019-01-14T11:54:37.813Z,4.60
2019-01-14T11:57:10.279Z,4.70
2019-01-14T11:59:42.543Z,4.70
2019-01-14T12:02:14.956Z,4.70
2019-01-14T12:04:47.121Z,4.80
2019-01-14T12:07:19.520Z,4.90
2019-01-14T12:09:51.702Z,5.10
2019-01-14T12:12:24.114Z,5.40
2019-01-14T12:14:56.278Z,5.50
2019-01-14T12:17:28.684Z,5.60
2019-01-14T12:20:00.947Z,5.50
2019-01-14T12:22:33.152Z,5.50
2019-01-14T12:25:06.194Z,5.30
2019-01-14T12:27:38.606Z,5.20
2019-01-14T12:30:39.857Z,5.10
2019-01-14T12:33:12.178Z,5.00
2019-01-14T12:35:44.339Z,4.90
2019-01-14T12:38:16.557Z,4.80
2019-01-14T12:40:48.920Z,4.80
2019-01-14T12:43:21.238Z,4.70
2019-01-14T12:45:53.497Z,4.70
2019-01-14T12:48:25.715Z,4.80
2019-01-14T12:50:57.969Z,5.00
2019-01-14T12:53:30.613Z,5.50
2019-01-14T12:56:02.975Z,6.30
2019-01-14T12:58:35.309Z,7.50
2019-01-14T13:01:07.685Z,8.10
2019-01-14T13:03:39.993Z,7.90
2019-01-14T13:06:12.480Z,7.50
2019-01-14T13:08:44.783Z,7.10
2019-01-14T13:11:17.055Z,6.70
2019-01-14T13:13:49.352Z,6.60
2019-01-14T13:16:21.824Z,6.30
2019-01-14T13:18:54.529Z,5.90
2019-01-14T13:21:26.954Z,5.50
2019-01-14T13:23:59.169Z,5.00
2019-01-14T13:26:31.689Z,4.60
2019-01-14T13:29:04.005Z,4.30
2019-01-14T13:31:36.318Z,4.00
2019-01-14T13:34:08.739Z,3.80
2019-01-14T13:36:41.052Z,3.80
2019-01-14T13:39:13.563Z,3.80
2019-01-14T13:41:45.985Z,3.80
2019-01-14T13:44:18.159Z,3.90
2019-01-14T13:46:50.381Z,4.00
2019-01-14T13:49:22.748Z,4.20
2019-01-14T13:51:55.169Z,4.30
2019-01-14T13:54:27.377Z,4.40
2019-01-14T13:56:59.762Z,4.50
2019-01-14T13:59:31.924Z,4.60
2019-01-14T14:02:04.345Z,4.70
2019-01-14T14:04:36.806Z,4.70
2019-01-14T14:07:09.223Z,4.70
2019-01-14T14:09:41.507Z,4.60
2019-01-14T14:12:13.780Z,4.50
2019-01-14T14:14:46.039Z,4.40
2019-01-14T14:17:18.355Z,4.30
2019-01-14T14:19:50.511Z,4.20
2019-01-14T14:22:22.796Z,4.10
2019-01-14T14:24:54.964Z,4.10
2019-01-14T14:27:27.379Z,4.10
2019-01-14T14:29:59.738Z,4.20
2019-01-14T14:32:32.049Z,4.20
2019-01-14T14:35:04.637Z,4.20
2019-01-14T14:37:37.050Z,4.30
2019-01-14T14:40:10.682Z,4.30
2019-01-14T14:42:42.995Z,4.50
2019-01-14T14:45:17.366Z,4.50
2019-01-14T14:47:49.675Z,4.50
2019-01-14T14:50:22.197Z,4.50
2019-01-14T14:52:54.709Z,4.50
2019-01-14T14:55:27.019Z,4.50
2019-01-14T14:57:59.529Z,4.50
2019-01-14T15:00:31.906Z,4.40
2019-01-14T15:03:04.218Z,4.40
2019-01-14T15:05:36.388Z,4.30
2019-01-14T15:08:08.791Z,4.20
2019-01-14T15:10:41.055Z,4.20
2019-01-14T15:13:13.451Z,4.10
2019-01-14T15:15:45.716Z,4.10
2019-01-14T15:18:17.988Z,4.00
2019-01-14T15:20:50.272Z,4.00
2019-01-14T15:23:22.481Z,4.00
2019-01-14T15:25:54.743Z,4.00
2019-01-14T15:28:27.139Z,4.00
2019-01-14T15:30:59.308Z,4.00
2019-01-14T15:33:31.901Z,3.90
2019-01-14T15:36:04.272Z,3.90
2019-01-14T15:38:36.485Z,3.90
2019-01-14T15:41:09.676Z,3.90
2019-01-14T15:43:41.892Z,3.80
2019-01-14T15:46:14.164Z,3.80
2019-01-14T15:48:46.368Z,3.80
2019-01-14T15:51:18.734Z,3.80
2019-01-14T15:53:51.089Z,3.80
2019-01-14T15:56:23.500Z,3.80
2019-01-14T15:58:55.867Z,3.80
2019-01-14T16:01:28.129Z,3.80
2019-01-14T16:04:00.450Z,3.80
2019-01-14T16:06:32.613Z,3.80
2019-01-14T16:09:07.298Z,3.80
2019-01-14T16:11:39.566Z,3.70
2019-01-14T16:14:11.871Z,3.70
2019-01-14T16:16:44.033Z,3.70
2019-01-14T16:19:16.350Z,3.70
2019-01-14T16:21:48.514Z,3.70
2019-01-14T16:24:20.933Z,3.80
2019-01-14T16:26:53.241Z,3.80
2019-01-14T16:29:25.462Z,3.80
2019-01-14T16:31:57.619Z,3.80
2019-01-14T16:34:29.833Z,3.90
2019-01-14T16:37:02.197Z,3.90
2019-01-14T16:39:34.412Z,3.90
2019-01-14T16:42:06.783Z,3.90
2019-01-14T16:44:39.100Z,3.90
2019-01-14T16:47:11.564Z,3.80
2019-01-14T16:49:43.850Z,3.80
2019-01-14T16:52:16.208Z,3.80
2019-01-14T16:54:48.518Z,3.80
2019-01-14T16:57:20.680Z,3.80
2019-01-14T16:59:53.135Z,3.80
2019-01-14T17:02:25.305Z,3.80
2019-01-14T17:04:57.621Z,3.70
2019-01-14T17:07:29.783Z,3.60
2019-01-14T17:10:01.995Z,3.50
2019-01-14T17:12:34.158Z,3.40
2019-01-14T17:15:07.332Z,3.40
2019-01-14T17:17:39.491Z,3.30
2019-01-14T17:20:18.741Z,3.30
2019-01-14T17:22:51.187Z,3.20
2019-01-14T17:25:23.597Z,3.20
2019-01-14T17:27:55.970Z,3.20
2019-01-14T17:30:28.379Z,3.20
2019-01-14T17:33:00.639Z,3.20
2019-01-14T17:35:33.048Z,3.20
2019-01-14T17:38:05.319Z,3.30
2019-01-14T17:40:37.533Z,3.30
2019-01-14T17:43:09.794Z,3.30
2019-01-14T17:45:42.107Z,3.30
2019-01-14T17:48:14.474Z,3.30
2019-01-14T17:50:46.687Z,3.20
2019-01-14T17:53:18.949Z,3.30
2019-01-14T17:55:51.320Z,3.20
2019-01-14T17:58:23.492Z,3.20
2019-01-14T18:00:55.806Z,3.20
2019-01-14T18:03:28.079Z,3.20
2019-01-14T18:06:00.387Z,3.20
2019-01-14T18:08:32.654Z,3.20
2019-01-14T18:11:04.966Z,3.20
2019-01-14T18:13:37.235Z,3.20
2019-01-14T18:16:09.740Z,3.20
2019-01-14T18:18:41.909Z,3.30
2019-01-14T18:21:14.288Z,3.30
2019-01-14T18:23:46.469Z,3.30
2019-01-14T18:26:19.813Z,3.30
2019-01-14T18:28:51.965Z,3.30
2019-01-14T18:31:24.423Z,3.30
2019-01-14T18:33:56.596Z,3.30
2019-01-14T18:36:29.211Z,3.30
2019-01-14T18:39:01.577Z,3.40
2019-01-14T18:41:33.859Z,3.40
2019-01-14T18:44:07.086Z,3.40
2019-01-14T18:46:39.389Z,3.30
2019-01-14T18:49:12.186Z,3.40
2019-01-14T18:51:44.485Z,3.40
2019-01-14T18:54:16.758Z,3.40
2019-01-14T18:56:49.012Z,3.40
2019-01-14T18:59:21.382Z,3.40
2019-01-14T19:01:53.700Z,3.40
2019-01-14T19:04:25.866Z,3.40
2019-01-14T19:06:58.190Z,3.40
2019-01-14T19:09:30.447Z,3.40
2019-01-14T19:12:02.978Z,3.40
2019-01-14T19:14:35.400Z,3.30
2019-01-14T19:17:08.700Z,3.30
2019-01-14T19:19:40.865Z,3.20
2019-01-14T19:22:13.287Z,3.10
2019-01-14T19:24:45.452Z,3.20
2019-01-14T19:27:18.046Z,3.10
2019-01-14T19:29:50.311Z,3.10
2019-01-14T19:32:22.619Z,3.00
2019-01-14T19:34:54.881Z,3.00
2019-01-14T19:37:27.294Z,2.90
2019-01-14T19:39:59.457Z,2.90
2019-01-14T19:42:31.765Z,2.90
2019-01-14T19:45:04.037Z,2.80
2019-01-14T19:47:36.357Z,2.80
2019-01-14T19:50:13.427Z,2.80
2019-01-14T19:52:46.146Z,2.80
2019-01-14T19:55:18.786Z,2.80
2019-01-14T19:57:51.345Z,2.80
2019-01-14T20:00:28.405Z,2.80
2019-01-14T20:03:01.190Z,2.80
2019-01-14T20:05:33.533Z,2.70
2019-01-14T20:08:06.339Z,2.80
2019-01-14T20:10:38.511Z,2.80
2019-01-14T20:13:10.829Z,2.80
2019-01-14T20:15:43.093Z,2.80
2019-01-14T20:18:15.497Z,2.90
2019-01-14T20:20:47.961Z,2.90
2019-01-14T20:23:20.349Z,2.80
2019-01-14T20:25:52.515Z,2.80
2019-01-14T20:28:24.731Z,2.80
2019-01-14T20:30:56.897Z,2.90
2019-01-14T20:33:29.119Z,2.80
2019-01-14T20:36:01.293Z,2.80
2019-01-14T20:38:33.703Z,2.80
2019-01-14T20:41:06.070Z,2.70
2019-01-14T20:43:38.282Z,2.70
2019-01-14T20:46:10.548Z,2.70
2019-01-14T20:48:42.767Z,2.70
2019-01-14T20:51:15.130Z,2.70
2019-01-14T20:53:47.350Z,2.70
2019-01-14T20:56:19.510Z,2.70
2019-01-14T20:58:51.867Z,2.70
2019-01-14T21:01:24.214Z,2.70
2019-01-14T21:03:56.729Z,2.70
2019-01-14T21:06:29.313Z,2.60
2019-01-14T21:09:01.973Z,2.60
2019-01-14T21:11:34.542Z,2.60
2019-01-14T21:14:07.462Z,2.60
2019-01-14T21:16:40.023Z,2.60
2019-01-14T21:19:12.640Z,2.60
2019-01-14T21:21:45.206Z,2.60
2019-01-14T21:24:17.817Z,2.60
2019-01-14T21:26:50.404Z,2.60
2019-01-14T21:29:26.027Z,2.60
2019-01-14T21:31:57.324Z,2.60
2019-01-14T21:34:29.939Z,2.50
2019-01-14T21:37:02.509Z,2.50
2019-01-14T21:39:35.123Z,2.50
2019-01-14T21:42:07.686Z,2.50
2019-01-14T21:44:40.305Z,2.50
2019-01-14T21:47:12.949Z,2.50
2019-01-14T21:49:45.566Z,2.50
2019-01-14T21:52:18.198Z,2.50
2019-01-14T21:54:50.712Z,2.50
2019-01-14T21:57:23.276Z,2.50
2019-01-14T21:59:55.922Z,2.50
2019-01-14T22:02:28.479Z,2.50
2019-01-14T22:05:01.097Z,2.50
2019-01-14T22:07:33.662Z,2.50
2019-01-14T22:10:07.914Z,2.50
2019-01-14T22:12:40.477Z,2.50
2019-01-14T22:15:13.452Z,2.50
2019-01-14T22:17:46.016Z,2.50
2019-01-14T22:20:24.961Z,2.50
2019-01-14T22:22:57.546Z,2.60
2019-01-14T22:25:30.160Z,2.60
2019-01-14T22:28:02.720Z,2.60
2019-01-14T22:30:38.459Z,2.60
2019-01-14T22:33:11.024Z,2.60
2019-01-14T22:35:43.637Z,2.60
2019-01-14T22:38:16.206Z,2.60
2019-01-14T22:40:48.822Z,2.60
2019-01-14T22:43:20.970Z,2.50
2019-01-14T22:45:53.180Z,2.50
2019-01-14T22:48:25.446Z,2.50
2019-01-14T22:50:57.762Z,2.50
2019-01-14T22:53:29.935Z,2.50
2019-01-14T22:56:02.319Z,2.50
2019-01-14T22:58:34.478Z,2.40
2019-01-14T23:01:35.404Z,2.50
2019-01-14T23:04:08.077Z,2.50
2019-01-14T23:06:40.438Z,2.50
2019-01-14T23:09:13.144Z,2.50
2019-01-14T23:11:45.454Z,2.40
2019-01-14T23:14:17.720Z,2.40
2019-01-14T23:16:50.042Z,2.40
2019-01-14T23:19:22.307Z,2.40
2019-01-14T23:21:54.629Z,2.40
2019-01-14T23:24:26.998Z,2.40
2019-01-14T23:26:59.317Z,2.40
2019-01-14T23:29:31.483Z,2.40
2019-01-14T23:32:03.695Z,2.40
2019-01-14T23:34:35.862Z,2.40
2019-01-14T23:37:08.178Z,2.40
2019-01-14T23:39:40.439Z,2.40
2019-01-14T23:42:12.724Z,2.40
2019-01-14T23:44:44.979Z,2.40
2019-01-14T23:47:17.359Z,2.40
2019-01-14T23:49:49.522Z,2.50
2019-01-14T23:52:21.736Z,2.50
2019-01-14T23:54:53.994Z,2.50
2019-01-14T23:57:26.204Z,2.50
2019-01-14T23:59:58.374Z,2.40
